createdAt,value
2024-03-14T00:00:19.005Z,18.10
2024-03-14T00:03:09.234Z,20.60
2024-03-14T00:05:37.103Z,20.00
2024-03-14T00:08:05.815Z,18.60
2024-03-14T00:10:34.441Z,20.40
2024-03-14T00:13:02.742Z,22.00
2024-03-14T00:15:31.514Z,20.90
2024-03-14T00:17:59.507Z,19.50
2024-03-14T00:20:27.734Z,19.50
2024-03-14T00:22:55.865Z,19.10
2024-03-14T00:25:23.735Z,20.80
2024-03-14T00:27:51.520Z,21.20
2024-03-14T00:30:20.055Z,19.50
2024-03-14T00:32:47.836Z,18.70
2024-03-14T00:35:16.485Z,17.90
2024-03-14T00:37:45.282Z,18.80
2024-03-14T00:40:13.257Z,20.30
2024-03-14T00:42:46.286Z,17.50
2024-03-14T00:45:16.008Z,17.60
2024-03-14T00:47:44.205Z,21.20
2024-03-14T00:50:12.225Z,21.20
2024-03-14T00:52:41.349Z,19.60
2024-03-14T00:55:11.190Z,19.80
2024-03-14T00:57:43.424Z,17.40
2024-03-14T01:00:14.351Z,19.40
2024-03-14T01:02:44.977Z,19.00
2024-03-14T01:05:13.426Z,19.10
2024-03-14T01:07:41.652Z,17.60
2024-03-14T01:10:10.855Z,20.10
2024-03-14T01:12:39.978Z,21.70
2024-03-14T01:15:09.159Z,20.10
2024-03-14T01:17:37.117Z,20.30
2024-03-14T01:20:11.410Z,19.60
2024-03-14T01:22:39.720Z,19.70
2024-03-14T01:25:07.579Z,19.00
2024-03-14T01:27:35.538Z,20.00
2024-03-14T01:30:04.383Z,19.40
2024-03-14T01:32:34.572Z,19.10
2024-03-14T01:35:02.536Z,20.00
2024-03-14T01:37:30.688Z,20.10
2024-03-14T01:39:58.698Z,18.30
2024-03-14T01:42:26.491Z,18.60
2024-03-14T01:44:58.415Z,18.80
2024-03-14T01:47:26.458Z,17.60
2024-03-14T01:49:54.296Z,18.60
2024-03-14T01:52:22.311Z,15.30
2024-03-14T01:54:50.330Z,20.50
2024-03-14T01:57:21.163Z,20.00
2024-03-14T01:59:51.170Z,16.50
2024-03-14T02:02:19.961Z,17.20
2024-03-14T02:04:53.444Z,22.30
2024-03-14T02:07:27.304Z,21.90
2024-03-14T02:09:55.050Z,19.30
2024-03-14T02:12:23.006Z,18.10
2024-03-14T02:14:50.986Z,20.30
2024-03-14T02:17:18.797Z,20.10
2024-03-14T02:19:46.888Z,19.80
2024-03-14T02:22:23.512Z,21.50
2024-03-14T02:24:53.854Z,21.30
2024-03-14T02:27:21.680Z,22.10
2024-03-14T02:29:49.966Z,19.00
2024-03-14T02:32:19.370Z,23.80
2024-03-14T02:34:47.160Z,17.70
2024-03-14T02:37:14.997Z,19.90
2024-03-14T02:39:43.005Z,19.80
2024-03-14T02:42:12.698Z,20.00
2024-03-14T02:44:40.780Z,16.90
2024-03-14T02:47:08.687Z,19.00
2024-03-14T02:49:36.886Z,18.60
2024-03-14T02:52:04.854Z,15.70
2024-03-14T02:54:32.730Z,16.80
2024-03-14T02:57:00.740Z,17.90
2024-03-14T02:59:28.954Z,18.50
2024-03-14T03:01:56.775Z,16.60
2024-03-14T03:04:25.685Z,16.80
2024-03-14T03:06:56.595Z,16.80
2024-03-14T03:09:24.948Z,16.20
2024-03-14T03:11:54.289Z,17.90
2024-03-14T03:14:22.898Z,16.30
2024-03-14T03:16:50.994Z,16.10
2024-03-14T03:19:19.375Z,16.20
2024-03-14T03:21:47.149Z,14.30
2024-03-14T03:24:15.279Z,13.70
2024-03-14T03:26:43.148Z,15.20
2024-03-14T03:29:13.958Z,16.10
2024-03-14T03:31:41.993Z,15.40
2024-03-14T03:34:09.728Z,18.00
2024-03-14T03:36:38.284Z,14.20
2024-03-14T03:39:13.037Z,18.20
2024-03-14T03:41:41.870Z,15.70
2024-03-14T03:44:10.460Z,15.90
2024-03-14T03:46:43.694Z,14.80
2024-03-14T03:49:11.627Z,16.10
2024-03-14T03:51:39.382Z,17.30
2024-03-14T03:54:07.218Z,17.20
2024-03-14T03:56:35.069Z,16.20
2024-03-14T03:59:02.785Z,18.50
2024-03-14T04:01:30.570Z,15.30
2024-03-14T04:03:58.330Z,18.20
2024-03-14T04:06:26.072Z,14.70
2024-03-14T04:08:54.457Z,17.30
2024-03-14T04:11:22.517Z,15.60
2024-03-14T04:13:50.272Z,16.70
2024-03-14T04:16:18.067Z,17.30
2024-03-14T04:18:46.662Z,17.50
2024-03-14T04:21:15.930Z,18.50
2024-03-14T04:23:43.829Z,19.40
2024-03-14T04:26:17.189Z,18.20
2024-03-14T04:28:46.584Z,14.60
2024-03-14T04:31:14.322Z,15.90
2024-03-14T04:33:43.294Z,18.10
2024-03-14T04:36:11.302Z,17.80
2024-03-14T04:38:39.973Z,17.70
2024-03-14T04:41:16.614Z,16.70
2024-03-14T04:43:48.066Z,20.70
2024-03-14T04:46:15.934Z,18.60
2024-03-14T04:48:43.778Z,18.30
2024-03-14T04:51:13.916Z,18.80
2024-03-14T04:53:42.513Z,17.40
2024-03-14T04:56:10.338Z,17.20
2024-03-14T04:58:38.995Z,17.00
2024-03-14T05:01:07.775Z,19.90
2024-03-14T05:03:35.944Z,21.50
2024-03-14T05:06:04.817Z,21.20
2024-03-14T05:08:32.770Z,21.30
2024-03-14T05:11:00.804Z,21.40
2024-03-14T05:13:29.584Z,22.50
2024-03-14T05:15:58.807Z,24.80
2024-03-14T05:18:27.470Z,17.10
2024-03-14T05:20:56.241Z,18.20
2024-03-14T05:23:24.314Z,20.40
2024-03-14T05:25:55.825Z,18.70
2024-03-14T05:28:23.798Z,22.70
2024-03-14T05:30:53.653Z,22.60
2024-03-14T05:33:21.738Z,19.60
2024-03-14T05:35:51.613Z,22.10
2024-03-14T05:38:19.553Z,18.70
2024-03-14T05:40:47.272Z,18.40
2024-03-14T05:43:15.662Z,18.00
2024-03-14T05:45:43.930Z,21.80
2024-03-14T05:48:14.439Z,22.10
2024-03-14T05:50:45.708Z,20.00
2024-03-14T05:53:13.552Z,19.70
2024-03-14T05:55:41.354Z,22.60
2024-03-14T05:58:09.533Z,16.70
2024-03-14T06:00:37.684Z,20.50
2024-03-14T06:03:05.527Z,21.60
2024-03-14T06:05:33.435Z,19.60
2024-03-14T06:08:01.320Z,23.20
2024-03-14T06:10:31.412Z,24.80
2024-03-14T06:12:59.453Z,24.10
2024-03-14T06:15:27.444Z,18.60
2024-03-14T06:17:55.453Z,20.20
2024-03-14T06:20:26.268Z,19.20
2024-03-14T06:22:54.325Z,19.60
2024-03-14T06:25:23.563Z,17.80
2024-03-14T06:27:51.320Z,17.30
2024-03-14T06:30:20.401Z,14.60
2024-03-14T06:32:49.192Z,17.20
2024-03-14T06:35:17.577Z,19.40
2024-03-14T06:37:45.812Z,17.10
2024-03-14T06:40:17.440Z,17.60
2024-03-14T06:42:46.906Z,18.40
2024-03-14T06:45:15.156Z,17.00
2024-03-14T06:47:46.737Z,16.90
2024-03-14T06:50:16.276Z,17.80
2024-03-14T06:52:44.336Z,17.20
2024-03-14T06:55:13.739Z,17.70
2024-03-14T06:57:41.941Z,16.50
2024-03-14T07:00:19.447Z,19.40
2024-03-14T07:02:47.529Z,16.40
2024-03-14T07:05:20.828Z,19.40
2024-03-14T07:07:50.318Z,17.60
2024-03-14T07:10:18.199Z,16.60
2024-03-14T07:12:47.875Z,19.20
2024-03-14T07:15:19.277Z,17.80
2024-03-14T07:17:47.950Z,22.50
2024-03-14T07:20:20.011Z,20.40
2024-03-14T07:22:48.120Z,16.80
2024-03-14T07:25:20.178Z,17.30
2024-03-14T07:27:49.730Z,17.60
2024-03-14T07:30:18.290Z,20.50
2024-03-14T07:32:46.761Z,18.50
2024-03-14T07:35:16.526Z,17.00
2024-03-14T07:37:47.120Z,17.70
2024-03-14T07:40:19.156Z,16.20
2024-03-14T07:42:47.921Z,20.10
2024-03-14T07:45:19.793Z,16.40
2024-03-14T07:47:53.846Z,18.70
2024-03-14T07:50:24.421Z,16.40
2024-03-14T07:52:52.521Z,19.80
2024-03-14T07:55:20.307Z,18.90
2024-03-14T07:57:48.394Z,17.00
2024-03-14T08:00:17.051Z,17.90
2024-03-14T08:02:55.778Z,18.20
2024-03-14T08:05:26.145Z,17.80
2024-03-14T08:08:04.832Z,18.00
2024-03-14T08:10:46.717Z,13.30
2024-03-14T08:13:25.373Z,17.40
2024-03-14T08:15:54.212Z,16.80
2024-03-14T08:18:26.265Z,17.20
2024-03-14T08:20:57.932Z,17.20
2024-03-14T08:23:27.756Z,15.90
2024-03-14T08:25:55.870Z,16.50
2024-03-14T08:28:24.560Z,14.90
2024-03-14T08:30:52.779Z,14.50
2024-03-14T08:33:24.557Z,14.40
2024-03-14T08:35:54.148Z,16.40
2024-03-14T08:38:22.046Z,17.10
2024-03-14T08:40:49.868Z,15.50
2024-03-14T08:43:17.654Z,16.40
2024-03-14T08:45:45.513Z,14.90
2024-03-14T08:48:13.564Z,16.30
2024-03-14T08:50:42.399Z,15.10
2024-03-14T08:53:14.516Z,15.80
2024-03-14T08:55:56.398Z,14.30
2024-03-14T09:00:58.007Z,14.60
2024-03-14T09:03:26.731Z,14.80
2024-03-14T09:05:54.797Z,15.40
2024-03-14T09:08:26.654Z,13.70
2024-03-14T09:10:55.171Z,15.40
2024-03-14T09:13:23.563Z,15.20
2024-03-14T09:15:52.391Z,13.40
2024-03-14T09:18:26.912Z,15.90
2024-03-14T09:20:57.534Z,13.60
2024-03-14T09:23:27.211Z,15.30
2024-03-14T09:28:28.622Z,15.20
2024-03-14T09:30:59.997Z,14.70
2024-03-14T09:33:29.327Z,16.20
2024-03-14T09:35:57.852Z,14.70
2024-03-14T09:38:25.742Z,14.70
2024-03-14T09:40:59.768Z,15.30
2024-03-14T09:43:34.110Z,15.70
2024-03-14T09:46:02.535Z,15.00
2024-03-14T09:48:31.576Z,16.30
2024-03-14T09:51:03.967Z,15.50
2024-03-14T09:53:33.161Z,15.60
2024-03-14T09:56:00.922Z,16.40
2024-03-14T09:58:30.196Z,15.00
2024-03-14T10:00:58.596Z,12.30
2024-03-14T10:03:26.566Z,15.30
2024-03-14T10:05:55.239Z,15.10
2024-03-14T10:08:23.508Z,16.30
2024-03-14T10:10:51.813Z,16.50
2024-03-14T10:13:30.573Z,17.40
2024-03-14T10:15:58.332Z,16.80
2024-03-14T10:18:28.236Z,15.00
2024-03-14T10:20:56.453Z,14.70
2024-03-14T10:23:26.768Z,13.70
2024-03-14T10:25:55.492Z,14.30
2024-03-14T10:28:29.752Z,14.40
2024-03-14T10:31:05.670Z,13.90
2024-03-14T10:33:38.690Z,13.00
2024-03-14T10:36:13.190Z,14.80
2024-03-14T10:38:42.474Z,14.80
2024-03-14T10:43:46.560Z,13.80
2024-03-14T10:46:15.222Z,14.30
2024-03-14T10:48:47.347Z,13.10
2024-03-14T10:51:16.473Z,13.50
2024-03-14T10:53:46.746Z,12.40
2024-03-14T10:56:24.186Z,13.70
2024-03-14T10:58:56.492Z,13.40
2024-03-14T11:01:26.935Z,14.20
2024-03-14T11:03:55.107Z,12.40
2024-03-14T11:06:26.699Z,12.60
2024-03-14T11:09:00.691Z,13.00
2024-03-14T11:11:32.049Z,11.50
2024-03-14T11:14:01.423Z,12.70
2024-03-14T11:19:04.805Z,13.00
2024-03-14T11:21:36.190Z,12.70
2024-03-14T11:24:11.743Z,14.20
2024-03-14T11:26:45.408Z,12.90
2024-03-14T11:29:18.968Z,13.80
2024-03-14T11:31:47.305Z,13.10
2024-03-14T11:34:16.997Z,13.30
2024-03-14T11:36:52.186Z,13.80
2024-03-14T11:39:27.431Z,12.10
2024-03-14T11:42:11.600Z,13.10
2024-03-14T11:44:44.469Z,11.80
2024-03-14T11:47:15.421Z,13.30
2024-03-14T11:49:44.457Z,13.50
2024-03-14T11:52:12.762Z,12.80
2024-03-14T11:54:42.625Z,13.30
2024-03-14T11:57:16.843Z,12.70
2024-03-14T11:59:52.940Z,12.50
2024-03-14T12:02:28.996Z,12.50
2024-03-14T12:04:57.869Z,12.60
2024-03-14T12:07:27.687Z,14.80
2024-03-14T12:09:55.528Z,13.00
2024-03-14T12:12:23.363Z,11.80
2024-03-14T12:14:57.123Z,12.80
2024-03-14T12:17:24.974Z,11.00
2024-03-14T12:19:55.713Z,12.30
2024-03-14T12:22:23.612Z,10.80
2024-03-14T12:25:02.112Z,11.90
2024-03-14T12:27:29.965Z,10.30
2024-03-14T12:29:59.853Z,11.10
2024-03-14T12:32:30.983Z,12.30
2024-03-14T12:35:02.647Z,11.20
2024-03-14T12:37:30.676Z,12.10
2024-03-14T12:39:58.985Z,13.40
2024-03-14T12:42:26.850Z,12.10
2024-03-14T12:44:55.618Z,12.90
2024-03-14T12:47:24.828Z,12.20
2024-03-14T12:49:53.294Z,12.60
2024-03-14T12:52:21.136Z,13.20
2024-03-14T12:54:50.870Z,12.10
2024-03-14T12:57:21.430Z,13.20
2024-03-14T12:59:50.834Z,12.50
2024-03-14T13:04:49.415Z,11.10
2024-03-14T13:07:20.448Z,12.20
2024-03-14T13:10:25.046Z,11.90
2024-03-14T13:12:59.058Z,13.10
2024-03-14T13:15:26.969Z,12.30
2024-03-14T13:17:55.504Z,15.90
2024-03-14T13:20:31.175Z,13.70
2024-03-14T13:22:59.873Z,12.00
2024-03-14T13:25:27.802Z,11.40
2024-03-14T13:27:55.614Z,10.60
2024-03-14T13:30:23.551Z,16.20
2024-03-14T13:32:57.660Z,15.90
2024-03-14T13:35:27.324Z,15.30
2024-03-14T13:37:58.549Z,13.10
2024-03-14T13:40:27.058Z,14.70
2024-03-14T13:42:56.255Z,15.60
2024-03-14T13:45:24.146Z,14.70
2024-03-14T13:47:52.510Z,14.30
2024-03-14T13:50:20.453Z,14.60
2024-03-14T13:52:51.424Z,12.40
2024-03-14T13:55:38.106Z,16.20
2024-03-14T13:58:07.757Z,14.20
2024-03-14T14:00:48.508Z,17.50
2024-03-14T14:03:23.331Z,14.90
2024-03-14T14:05:57.069Z,16.00
2024-03-14T14:08:28.924Z,17.00
2024-03-14T14:10:56.924Z,14.60
2024-03-14T14:13:24.734Z,15.80
2024-03-14T14:15:53.767Z,15.30
2024-03-14T14:18:21.927Z,15.30
2024-03-14T14:20:49.683Z,15.20
2024-03-14T14:23:17.603Z,15.80
2024-03-14T14:25:48.306Z,15.40
2024-03-14T14:28:17.777Z,14.90
2024-03-14T14:30:45.755Z,15.70
2024-03-14T14:33:14.536Z,15.00
2024-03-14T14:35:45.600Z,15.50
2024-03-14T14:38:13.570Z,14.10
2024-03-14T14:40:41.389Z,12.40
2024-03-14T14:43:09.422Z,15.20
2024-03-14T14:45:38.897Z,16.00
2024-03-14T14:48:07.174Z,14.20
2024-03-14T14:50:35.282Z,14.10
2024-03-14T14:53:03.043Z,14.90
2024-03-14T14:55:30.890Z,13.40
2024-03-14T14:57:59.078Z,16.00
2024-03-14T15:00:27.104Z,14.60
2024-03-14T15:02:55.343Z,14.80
2024-03-14T15:05:23.249Z,13.60
2024-03-14T15:07:51.650Z,14.30
2024-03-14T15:10:19.739Z,14.30
2024-03-14T15:12:54.110Z,13.70
2024-03-14T15:15:28.179Z,14.90
2024-03-14T15:17:56.514Z,14.80
2024-03-14T15:20:25.053Z,14.90
2024-03-14T15:22:54.533Z,13.70
2024-03-14T15:25:25.946Z,14.00
2024-03-14T15:27:54.787Z,15.40
2024-03-14T15:30:24.401Z,16.00
2024-03-14T15:32:52.833Z,14.50
2024-03-14T15:35:20.836Z,13.20
2024-03-14T15:37:48.782Z,14.10
2024-03-14T15:40:17.282Z,15.40
2024-03-14T15:42:46.409Z,14.10
2024-03-14T15:45:19.357Z,12.20
2024-03-14T15:47:49.054Z,14.20
2024-03-14T15:50:17.993Z,16.50
2024-03-14T15:52:46.103Z,14.90
2024-03-14T15:55:17.131Z,13.90
2024-03-14T15:57:48.684Z,15.00
2024-03-14T16:00:17.924Z,14.20
2024-03-14T16:02:46.516Z,14.30
2024-03-14T16:05:17.753Z,13.60
2024-03-14T16:07:48.322Z,14.80
2024-03-14T16:10:17.614Z,13.90
2024-03-14T16:12:49.043Z,12.50
2024-03-14T16:15:17.883Z,13.60
2024-03-14T16:17:46.022Z,14.10
2024-03-14T16:20:33.394Z,13.00
2024-03-14T16:23:05.219Z,13.40
2024-03-14T16:25:37.015Z,13.20
2024-03-14T16:28:05.580Z,15.00
2024-03-14T16:30:33.765Z,13.60
2024-03-14T16:33:02.096Z,12.60
2024-03-14T16:35:31.003Z,12.70
2024-03-14T16:38:03.403Z,12.90
2024-03-14T16:40:33.452Z,13.20
2024-03-14T16:43:02.819Z,14.50
2024-03-14T16:45:31.392Z,10.90
2024-03-14T16:48:03.614Z,14.40
2024-03-14T16:50:32.975Z,13.60
2024-03-14T16:53:01.393Z,14.00
2024-03-14T16:55:32.624Z,14.50
2024-03-14T16:58:03.929Z,14.30
2024-03-14T17:00:32.274Z,13.20
2024-03-14T17:03:01.035Z,15.10
2024-03-14T17:05:29.892Z,12.70
2024-03-14T17:07:58.098Z,34.30
2024-03-14T17:10:27.254Z,21.50
2024-03-14T17:12:55.966Z,19.30
2024-03-14T17:15:24.010Z,26.70
2024-03-14T17:17:51.937Z,21.70
2024-03-14T17:20:19.851Z,27.30
2024-03-14T17:22:48.505Z,22.90
2024-03-14T17:25:16.669Z,38.80
2024-03-14T17:27:45.741Z,35.30
2024-03-14T17:30:17.811Z,33.80
2024-03-14T17:32:46.410Z,23.90
2024-03-14T17:35:14.542Z,19.80
2024-03-14T17:37:44.988Z,21.60
2024-03-14T17:40:13.210Z,22.90
2024-03-14T17:42:48.624Z,18.70
2024-03-14T17:45:18.814Z,21.70
2024-03-14T17:47:48.598Z,23.80
2024-03-14T17:50:17.145Z,19.10
2024-03-14T17:52:46.768Z,20.50
2024-03-14T17:55:15.746Z,20.80
2024-03-14T17:57:45.750Z,24.00
2024-03-14T18:00:18.867Z,25.10
2024-03-14T18:02:49.999Z,18.70
2024-03-14T18:05:19.166Z,19.30
2024-03-14T18:07:48.094Z,20.10
2024-03-14T18:10:16.870Z,19.60
2024-03-14T18:12:49.295Z,16.80
2024-03-14T18:15:20.190Z,15.40
2024-03-14T18:17:50.038Z,17.90
2024-03-14T18:20:19.035Z,15.00
2024-03-14T18:22:47.106Z,18.20
2024-03-14T18:25:18.727Z,19.20
2024-03-14T18:27:50.408Z,17.60
2024-03-14T18:30:21.763Z,16.30
2024-03-14T18:32:51.939Z,18.10
2024-03-14T18:35:24.284Z,14.40
2024-03-14T18:37:54.233Z,16.30
2024-03-14T18:40:27.630Z,15.70
2024-03-14T18:43:00.542Z,14.80
2024-03-14T18:45:29.091Z,16.90
2024-03-14T18:47:59.157Z,16.80
2024-03-14T18:50:27.572Z,16.30
2024-03-14T18:52:56.066Z,16.40
2024-03-14T18:55:24.753Z,17.40
2024-03-14T18:57:53.569Z,19.00
2024-03-14T19:00:26.765Z,20.30
2024-03-14T19:02:55.917Z,29.20
2024-03-14T19:05:28.586Z,21.00
2024-03-14T19:08:03.608Z,18.30
2024-03-14T19:10:34.248Z,15.60
2024-03-14T19:13:04.087Z,15.20
2024-03-14T19:15:35.129Z,15.40
2024-03-14T19:18:03.249Z,18.50
2024-03-14T19:20:31.523Z,16.80
2024-03-14T19:22:59.437Z,17.70
2024-03-14T19:25:27.255Z,16.80
2024-03-14T19:27:55.598Z,22.80
2024-03-14T19:30:25.508Z,18.30
2024-03-14T19:32:54.484Z,18.80
2024-03-14T19:35:22.335Z,18.80
2024-03-14T19:37:50.340Z,20.40
2024-03-14T19:40:18.187Z,18.70
2024-03-14T19:42:46.102Z,18.10
2024-03-14T19:45:15.884Z,19.80
2024-03-14T19:47:47.300Z,16.80
2024-03-14T19:50:15.241Z,16.60
2024-03-14T19:52:45.443Z,17.40
2024-03-14T19:55:14.641Z,19.20
2024-03-14T19:57:42.884Z,19.50
2024-03-14T20:00:12.113Z,15.70
2024-03-14T20:02:42.044Z,18.00
2024-03-14T20:05:10.160Z,20.20
2024-03-14T20:07:38.397Z,18.10
2024-03-14T20:10:08.571Z,18.30
2024-03-14T20:12:36.707Z,18.70
2024-03-14T20:15:05.146Z,17.30
2024-03-14T20:17:34.220Z,18.10
2024-03-14T20:20:08.647Z,18.70
2024-03-14T20:22:36.420Z,18.70
2024-03-14T20:25:06.255Z,25.00
2024-03-14T20:27:35.928Z,22.60
2024-03-14T20:32:33.104Z,19.00
2024-03-14T20:35:02.449Z,19.40
2024-03-14T20:37:31.016Z,18.90
2024-03-14T20:40:02.185Z,17.20
2024-03-14T20:42:33.973Z,19.30
2024-03-14T20:45:02.084Z,18.20
2024-03-14T20:47:30.411Z,16.00
2024-03-14T20:49:58.985Z,14.90
2024-03-14T20:52:28.147Z,16.30
2024-03-14T20:57:52.926Z,16.90
2024-03-14T21:00:30.662Z,15.70
2024-03-14T21:02:59.070Z,13.90
2024-03-14T21:05:27.702Z,16.70
2024-03-14T21:07:56.513Z,16.30
2024-03-14T21:10:34.899Z,17.60
2024-03-14T21:13:06.270Z,15.80
2024-03-14T21:15:36.872Z,16.00
2024-03-14T21:18:05.019Z,16.80
2024-03-14T21:20:33.073Z,14.70
2024-03-14T21:23:01.079Z,14.80
2024-03-14T21:25:30.132Z,14.30
2024-03-14T21:28:01.557Z,12.90
2024-03-14T21:30:29.672Z,16.00
2024-03-14T21:32:58.373Z,17.90
2024-03-14T21:35:26.662Z,16.80
2024-03-14T21:37:54.788Z,14.70
2024-03-14T21:40:24.509Z,16.40
2024-03-14T21:42:53.645Z,16.00
2024-03-14T21:45:21.772Z,16.30
2024-03-14T21:47:49.773Z,15.20
2024-03-14T21:50:18.407Z,15.40
2024-03-14T21:52:46.548Z,14.40
2024-03-14T21:55:22.075Z,17.40
2024-03-14T21:57:51.622Z,15.80
2024-03-14T22:00:21.636Z,17.30
2024-03-14T22:02:51.105Z,16.70
2024-03-14T22:05:22.260Z,16.70
2024-03-14T22:07:50.457Z,17.80
2024-03-14T22:10:18.719Z,14.40
2024-03-14T22:12:46.621Z,16.10
2024-03-14T22:15:15.994Z,15.40
2024-03-14T22:17:45.386Z,16.60
2024-03-14T22:20:20.647Z,16.00
2024-03-14T22:22:49.161Z,17.80
2024-03-14T22:25:18.269Z,14.90
2024-03-14T22:27:46.563Z,17.90
2024-03-14T22:30:15.092Z,15.50
2024-03-14T22:32:43.081Z,17.80
2024-03-14T22:35:11.444Z,16.90
2024-03-14T22:37:39.456Z,18.40
2024-03-14T22:40:07.966Z,17.00
2024-03-14T22:42:36.127Z,15.60
2024-03-14T22:45:05.215Z,16.60
2024-03-14T22:47:33.434Z,18.50
2024-03-14T22:50:01.283Z,18.30
2024-03-14T22:52:29.181Z,16.30
2024-03-14T22:54:57.095Z,19.90
2024-03-14T22:57:25.047Z,18.20
2024-03-14T22:59:52.918Z,20.60
2024-03-14T23:02:21.947Z,18.60
2024-03-14T23:04:49.833Z,21.40
2024-03-14T23:07:18.567Z,18.30
2024-03-14T23:09:47.892Z,19.40
2024-03-14T23:12:17.026Z,19.20
2024-03-14T23:14:45.281Z,21.80
2024-03-14T23:17:16.252Z,21.40
2024-03-14T23:19:44.068Z,20.50
2024-03-14T23:22:11.799Z,18.50
2024-03-14T23:24:41.905Z,18.60
2024-03-14T23:27:10.145Z,18.10
2024-03-14T23:29:38.014Z,17.90
2024-03-14T23:32:05.942Z,22.00
2024-03-14T23:34:33.900Z,16.70
2024-03-14T23:37:01.665Z,21.70
2024-03-14T23:39:30.023Z,19.30
2024-03-14T23:41:57.973Z,18.70
2024-03-14T23:44:25.677Z,20.70
2024-03-14T23:46:54.169Z,21.10
2024-03-14T23:49:21.967Z,18.50
2024-03-14T23:51:49.803Z,20.80
2024-03-14T23:54:17.927Z,19.00
2024-03-14T23:56:45.742Z,18.00
2024-03-14T23:59:13.523Z,17.50
